createdAt,value
2023-09-28T00:01:39.791Z,19.40
2023-09-28T00:04:08.442Z,15.00
2023-09-28T00:06:36.921Z,17.20
2023-09-28T00:09:05.276Z,21.80
2023-09-28T00:11:33.264Z,22.10
2023-09-28T00:14:01.388Z,25.50
2023-09-28T00:16:30.522Z,23.80
2023-09-28T00:18:58.591Z,23.60
2023-09-28T00:21:27.614Z,22.70
2023-09-28T00:23:55.930Z,25.00
2023-09-28T00:26:24.043Z,29.10
2023-09-28T00:28:52.444Z,30.40
2023-09-28T00:31:20.929Z,27.70
2023-09-28T00:33:49.857Z,27.30
2023-09-28T00:36:18.226Z,25.80
2023-09-28T00:38:48.943Z,23.70
2023-09-28T00:41:16.926Z,23.30
2023-09-28T00:43:46.027Z,19.80
2023-09-28T00:46:17.903Z,25.40
2023-09-28T00:49:03.777Z,22.40
2023-09-28T00:51:34.232Z,21.60
2023-09-28T00:54:04.464Z,22.40
2023-09-28T00:56:33.359Z,29.90
2023-09-28T00:59:01.644Z,23.60
2023-09-28T01:01:30.781Z,25.60
2023-09-28T01:04:04.641Z,26.20
2023-09-28T01:06:36.384Z,24.40
2023-09-28T01:09:11.313Z,23.20
2023-09-28T01:11:41.843Z,20.40
2023-09-28T01:14:10.538Z,25.40
2023-09-28T01:16:40.461Z,23.70
2023-09-28T01:19:10.402Z,24.10
2023-09-28T01:21:38.516Z,25.70
2023-09-28T01:24:07.614Z,24.00
2023-09-28T01:26:35.802Z,20.10
2023-09-28T01:29:03.756Z,27.10
2023-09-28T01:31:33.827Z,17.80
2023-09-28T01:34:02.085Z,17.50
2023-09-28T01:36:30.077Z,20.50
2023-09-28T01:39:03.607Z,17.60
2023-09-28T01:41:32.037Z,22.10
2023-09-28T01:44:00.131Z,19.50
2023-09-28T01:46:28.258Z,19.30
2023-09-28T01:48:56.220Z,19.50
2023-09-28T01:51:24.340Z,23.10
2023-09-28T01:53:52.603Z,22.50
2023-09-28T01:56:22.546Z,19.50
2023-09-28T01:58:50.878Z,21.50
2023-09-28T02:01:24.025Z,20.50
2023-09-28T02:03:52.572Z,19.10
2023-09-28T02:06:20.711Z,19.30
2023-09-28T02:08:48.654Z,21.40
2023-09-28T02:11:17.170Z,20.80
2023-09-28T02:13:45.919Z,19.20
2023-09-28T02:16:14.550Z,20.10
2023-09-28T02:18:44.834Z,23.90
2023-09-28T02:21:16.269Z,21.00
2023-09-28T02:23:45.215Z,18.30
2023-09-28T02:26:13.300Z,23.40
2023-09-28T02:28:41.481Z,20.50
2023-09-28T02:31:10.060Z,20.10
2023-09-28T02:33:38.019Z,19.40
2023-09-28T02:36:06.484Z,21.60
2023-09-28T02:38:34.700Z,17.40
2023-09-28T02:41:02.750Z,19.20
2023-09-28T02:43:30.850Z,20.60
2023-09-28T02:45:58.743Z,20.40
2023-09-28T02:48:26.579Z,20.60
2023-09-28T02:50:54.585Z,19.30
2023-09-28T02:53:23.168Z,19.60
2023-09-28T02:55:52.764Z,18.70
2023-09-28T02:58:23.322Z,19.70
2023-09-28T03:00:52.204Z,20.70
2023-09-28T03:03:20.400Z,18.60
2023-09-28T03:05:48.407Z,21.30
2023-09-28T03:08:16.535Z,18.80
2023-09-28T03:10:45.731Z,25.00
2023-09-28T03:13:13.838Z,24.30
2023-09-28T03:15:47.894Z,20.50
2023-09-28T03:18:17.607Z,21.70
2023-09-28T03:20:49.318Z,19.50
2023-09-28T03:23:17.791Z,19.00
2023-09-28T03:25:47.229Z,20.10
2023-09-28T03:28:16.300Z,20.30
2023-09-28T03:30:44.777Z,21.10
2023-09-28T03:33:12.745Z,17.80
2023-09-28T03:35:40.716Z,22.10
2023-09-28T03:38:08.701Z,17.90
2023-09-28T03:40:36.957Z,18.00
2023-09-28T03:43:05.396Z,21.10
2023-09-28T03:45:34.901Z,19.50
2023-09-28T03:48:03.265Z,19.60
2023-09-28T03:50:31.323Z,22.60
2023-09-28T03:52:59.407Z,19.50
2023-09-28T03:55:27.358Z,18.50
2023-09-28T03:57:55.333Z,20.60
2023-09-28T04:00:23.607Z,21.80
2023-09-28T04:02:55.256Z,18.80
2023-09-28T04:05:25.469Z,20.80
2023-09-28T04:07:54.485Z,18.70
2023-09-28T04:10:24.675Z,19.80
2023-09-28T04:12:54.763Z,22.80
2023-09-28T04:15:26.149Z,21.20
2023-09-28T04:17:54.744Z,19.10
2023-09-28T04:20:22.934Z,18.90
2023-09-28T04:22:51.331Z,21.40
2023-09-28T04:25:21.474Z,19.60
2023-09-28T04:27:51.425Z,18.90
2023-09-28T04:30:22.629Z,19.60
2023-09-28T04:32:55.826Z,17.20
2023-09-28T04:35:24.245Z,18.20
2023-09-28T04:37:52.165Z,23.10
2023-09-28T04:40:25.848Z,21.10
2023-09-28T04:42:56.211Z,22.40
2023-09-28T04:45:24.362Z,20.30
2023-09-28T04:47:52.267Z,22.20
2023-09-28T04:50:20.493Z,23.50
2023-09-28T04:52:48.598Z,20.00
2023-09-28T04:55:16.845Z,20.20
2023-09-28T04:57:45.943Z,22.50
2023-09-28T05:00:17.702Z,17.50
2023-09-28T05:02:49.396Z,15.40
2023-09-28T05:05:18.236Z,15.20
2023-09-28T05:07:46.537Z,20.30
2023-09-28T05:10:14.607Z,18.20
2023-09-28T05:12:42.602Z,20.90
2023-09-28T05:15:11.259Z,22.10
2023-09-28T05:17:39.408Z,18.50
2023-09-28T05:20:09.469Z,26.10
2023-09-28T05:22:37.541Z,18.20
2023-09-28T05:25:07.969Z,21.90
2023-09-28T05:27:35.868Z,20.00
2023-09-28T05:30:05.983Z,21.30
2023-09-28T05:32:34.192Z,24.30
2023-09-28T05:35:03.831Z,20.60
2023-09-28T05:37:32.209Z,24.30
2023-09-28T05:40:01.253Z,25.60
2023-09-28T05:42:29.153Z,22.50
2023-09-28T05:44:57.257Z,21.40
2023-09-28T05:47:25.210Z,26.60
2023-09-28T05:49:53.651Z,20.40
2023-09-28T05:52:23.768Z,25.40
2023-09-28T05:54:51.910Z,27.90
2023-09-28T05:57:22.313Z,21.30
2023-09-28T05:59:51.255Z,23.80
2023-09-28T06:02:22.075Z,21.40
2023-09-28T06:04:52.174Z,21.70
2023-09-28T06:07:20.217Z,25.20
2023-09-28T06:09:48.563Z,26.20
2023-09-28T06:12:16.706Z,26.90
2023-09-28T06:14:44.819Z,22.20
2023-09-28T06:17:12.817Z,25.10
2023-09-28T06:19:51.443Z,31.50
2023-09-28T06:22:25.844Z,27.20
2023-09-28T06:24:53.875Z,26.60
2023-09-28T06:27:21.661Z,28.50
2023-09-28T06:29:54.524Z,24.00
2023-09-28T06:32:23.959Z,32.10
2023-09-28T06:34:52.388Z,28.20
2023-09-28T06:37:20.730Z,29.10
2023-09-28T06:39:48.633Z,24.20
2023-09-28T06:42:34.542Z,29.80
2023-09-28T06:45:05.614Z,27.40
2023-09-28T06:47:46.594Z,27.50
2023-09-28T06:50:22.902Z,24.30
2023-09-28T06:52:52.940Z,26.80
2023-09-28T06:55:23.645Z,26.70
2023-09-28T06:57:52.248Z,23.40
2023-09-28T07:00:20.448Z,20.10
2023-09-28T07:02:48.790Z,26.10
2023-09-28T07:05:18.380Z,27.00
2023-09-28T07:07:47.485Z,24.20
2023-09-28T07:10:15.967Z,26.10
2023-09-28T07:12:43.842Z,27.10
2023-09-28T07:15:12.741Z,24.80
2023-09-28T07:17:41.051Z,23.00
2023-09-28T07:20:10.588Z,25.60
2023-09-28T07:22:39.421Z,26.70
2023-09-28T07:25:08.233Z,22.90
2023-09-28T07:27:36.017Z,19.00
2023-09-28T07:30:09.647Z,21.70
2023-09-28T07:32:37.747Z,22.80
2023-09-28T07:35:06.147Z,21.90
2023-09-28T07:37:33.998Z,20.90
2023-09-28T07:40:02.734Z,20.10
2023-09-28T07:42:32.020Z,24.00
2023-09-28T07:44:59.866Z,18.10
2023-09-28T07:47:27.984Z,19.80
2023-09-28T07:49:55.990Z,17.30
2023-09-28T07:52:24.427Z,17.90
2023-09-28T07:54:52.417Z,20.80
2023-09-28T07:57:20.447Z,21.50
2023-09-28T07:59:48.323Z,17.30
2023-09-28T08:02:16.314Z,15.60
2023-09-28T08:04:44.211Z,16.60
2023-09-28T08:07:13.008Z,18.90
2023-09-28T08:09:40.907Z,16.40
2023-09-28T08:12:10.094Z,21.50
2023-09-28T08:14:38.263Z,17.70
2023-09-28T08:17:07.501Z,17.50
2023-09-28T08:19:35.729Z,15.70
2023-09-28T08:22:06.882Z,17.40
2023-09-28T08:24:34.898Z,15.10
2023-09-28T08:27:05.340Z,14.30
2023-09-28T08:29:35.126Z,23.60
2023-09-28T08:32:03.265Z,18.50
2023-09-28T08:34:39.620Z,15.80
2023-09-28T08:37:07.926Z,17.90
2023-09-28T08:39:39.865Z,11.50
2023-09-28T08:42:13.678Z,15.50
2023-09-28T08:44:41.949Z,14.20
2023-09-28T08:47:17.800Z,16.20
2023-09-28T08:49:51.745Z,14.70
2023-09-28T08:52:20.688Z,14.10
2023-09-28T08:54:49.737Z,13.70
2023-09-28T08:57:17.800Z,12.70
2023-09-28T08:59:47.595Z,14.00
2023-09-28T09:02:17.257Z,14.40
2023-09-28T09:04:46.653Z,11.40
2023-09-28T09:07:15.302Z,12.80
2023-09-28T09:09:47.651Z,11.50
2023-09-28T09:12:16.327Z,12.10
2023-09-28T09:14:44.171Z,9.80
2023-09-28T09:17:13.569Z,15.00
2023-09-28T09:19:43.088Z,10.50
2023-09-28T09:22:26.619Z,8.70
2023-09-28T09:25:01.846Z,16.90
2023-09-28T09:27:33.504Z,12.90
2023-09-28T09:30:09.768Z,11.60
2023-09-28T09:32:40.434Z,13.10
2023-09-28T09:35:09.093Z,15.90
2023-09-28T09:37:42.967Z,13.60
2023-09-28T09:40:14.926Z,11.60
2023-09-28T09:42:43.358Z,14.10
2023-09-28T09:45:13.396Z,13.30
2023-09-28T09:47:46.897Z,8.20
2023-09-28T09:50:15.966Z,10.30
2023-09-28T09:52:45.687Z,9.40
2023-09-28T09:55:14.039Z,10.10
2023-09-28T09:57:43.861Z,9.70
2023-09-28T10:00:17.471Z,10.70
2023-09-28T10:02:48.917Z,10.10
2023-09-28T10:05:19.464Z,9.80
2023-09-28T10:07:49.153Z,10.70
2023-09-28T10:10:20.563Z,10.50
2023-09-28T10:12:49.248Z,8.30
2023-09-28T10:15:18.529Z,9.00
2023-09-28T10:17:47.199Z,13.60
2023-09-28T10:20:16.233Z,10.40
2023-09-28T10:22:48.646Z,8.50
2023-09-28T10:25:17.666Z,9.80
2023-09-28T10:27:48.525Z,10.30
2023-09-28T10:30:23.619Z,14.50
2023-09-28T10:32:52.710Z,11.90
2023-09-28T10:35:21.422Z,6.90
2023-09-28T10:38:19.214Z,11.30
2023-09-28T10:41:04.044Z,9.10
2023-09-28T10:43:44.478Z,10.30
2023-09-28T10:46:13.791Z,7.60
2023-09-28T10:48:43.651Z,13.00
2023-09-28T10:51:19.075Z,10.40
2023-09-28T10:53:47.381Z,9.30
2023-09-28T10:56:15.466Z,10.20
2023-09-28T10:58:44.217Z,10.50
2023-09-28T11:01:12.374Z,10.20
2023-09-28T11:03:41.027Z,9.30
2023-09-28T11:06:11.501Z,9.30
2023-09-28T11:08:40.855Z,9.80
2023-09-28T11:11:09.986Z,10.00
2023-09-28T11:13:38.879Z,7.30
2023-09-28T11:16:07.148Z,9.90
2023-09-28T11:18:35.112Z,16.40
2023-09-28T11:21:04.727Z,10.80
2023-09-28T11:23:32.900Z,8.50
2023-09-28T11:26:00.905Z,8.50
2023-09-28T11:28:31.010Z,12.20
2023-09-28T11:31:13.342Z,10.10
2023-09-28T11:33:43.661Z,10.20
2023-09-28T11:36:22.929Z,9.90
2023-09-28T11:38:53.850Z,8.10
2023-09-28T11:41:24.456Z,11.40
2023-09-28T11:43:53.571Z,9.50
2023-09-28T11:46:24.634Z,8.80
2023-09-28T11:49:11.313Z,10.20
2023-09-28T11:51:40.597Z,9.10
2023-09-28T11:54:11.028Z,10.60
2023-09-28T11:56:41.383Z,10.50
2023-09-28T11:59:10.884Z,13.10
2023-09-28T12:01:39.299Z,9.20
2023-09-28T12:04:09.267Z,10.80
2023-09-28T12:06:38.644Z,9.80
2023-09-28T12:09:07.588Z,11.40
2023-09-28T12:11:39.255Z,8.40
2023-09-28T12:14:09.133Z,8.70
2023-09-28T12:16:37.284Z,9.90
2023-09-28T12:19:05.665Z,8.90
2023-09-28T12:21:33.666Z,10.40
2023-09-28T12:24:01.889Z,8.80
2023-09-28T12:26:29.940Z,21.70
2023-09-28T12:28:58.752Z,9.90
2023-09-28T12:31:26.763Z,7.40
2023-09-28T12:33:56.376Z,11.80
2023-09-28T12:36:24.553Z,10.40
2023-09-28T12:38:53.361Z,7.70
2023-09-28T12:41:21.596Z,8.20
2023-09-28T12:43:49.471Z,9.60
2023-09-28T12:46:17.676Z,9.60
2023-09-28T12:48:46.565Z,8.80
2023-09-28T12:51:15.412Z,9.90
2023-09-28T12:53:43.320Z,8.90
2023-09-28T12:56:11.426Z,9.70
2023-09-28T12:58:39.606Z,9.40
2023-09-28T13:01:07.553Z,7.10
2023-09-28T13:03:35.620Z,7.00
2023-09-28T13:06:03.758Z,9.10
2023-09-28T13:08:32.813Z,9.00
2023-09-28T13:11:00.807Z,8.80
2023-09-28T13:13:28.635Z,9.00
2023-09-28T13:15:56.671Z,7.80
2023-09-28T13:18:25.080Z,6.40
2023-09-28T13:20:53.652Z,7.80
2023-09-28T13:23:21.622Z,12.30
2023-09-28T13:25:50.398Z,13.60
2023-09-28T13:28:18.589Z,8.60
2023-09-28T13:30:48.710Z,8.10
2023-09-28T13:33:16.826Z,9.70
2023-09-28T13:35:44.999Z,9.20
2023-09-28T13:38:13.260Z,7.70
2023-09-28T13:40:41.457Z,7.80
2023-09-28T13:43:09.404Z,11.20
2023-09-28T13:45:38.386Z,10.90
2023-09-28T13:48:07.304Z,8.50
2023-09-28T13:50:37.138Z,9.40
2023-09-28T13:53:05.517Z,10.30
2023-09-28T13:55:34.502Z,9.70
2023-09-28T13:58:02.533Z,9.00
2023-09-28T14:00:41.554Z,13.30
2023-09-28T14:03:10.635Z,8.70
2023-09-28T14:05:39.481Z,8.90
2023-09-28T14:08:09.776Z,8.80
2023-09-28T14:10:38.290Z,10.10
2023-09-28T14:13:07.041Z,11.00
2023-09-28T14:15:35.058Z,7.80
2023-09-28T14:18:03.994Z,10.10
2023-09-28T14:20:37.258Z,5.90
2023-09-28T14:23:05.260Z,9.60
2023-09-28T14:25:33.112Z,7.00
2023-09-28T14:28:01.432Z,12.50
2023-09-28T14:30:29.385Z,7.10
2023-09-28T14:32:57.620Z,10.20
2023-09-28T14:35:25.676Z,14.30
2023-09-28T14:37:53.696Z,8.90
2023-09-28T14:40:22.337Z,10.20
2023-09-28T14:42:50.683Z,10.70
2023-09-28T14:45:19.747Z,10.10
2023-09-28T14:47:47.740Z,11.90
2023-09-28T14:50:15.991Z,8.80
2023-09-28T14:52:44.151Z,10.00
2023-09-28T14:55:12.210Z,7.80
2023-09-28T14:57:40.811Z,8.80
2023-09-28T15:00:13.894Z,7.70
2023-09-28T15:02:44.621Z,8.60
2023-09-28T15:05:12.861Z,10.40
2023-09-28T15:07:40.878Z,10.30
2023-09-28T15:10:11.097Z,8.60
2023-09-28T15:12:40.385Z,8.30
2023-09-28T15:15:08.561Z,9.20
2023-09-28T15:17:37.165Z,9.30
2023-09-28T15:20:11.191Z,11.80
2023-09-28T15:22:39.674Z,12.60
2023-09-28T15:25:09.868Z,13.50
2023-09-28T15:27:43.332Z,10.80
2023-09-28T15:30:16.042Z,10.30
2023-09-28T15:32:44.928Z,13.90
2023-09-28T15:35:14.649Z,10.30
2023-09-28T15:37:43.145Z,13.20
2023-09-28T15:40:11.277Z,10.20
2023-09-28T15:42:39.307Z,8.10
2023-09-28T15:45:12.149Z,12.00
2023-09-28T15:47:41.619Z,13.70
2023-09-28T15:50:11.580Z,13.10
2023-09-28T15:52:39.724Z,9.20
2023-09-28T15:55:08.054Z,12.50
2023-09-28T15:57:36.324Z,10.30
2023-09-28T16:00:11.657Z,13.50
2023-09-28T16:02:47.763Z,14.20
2023-09-28T16:05:16.090Z,12.60
2023-09-28T16:07:44.121Z,12.40
2023-09-28T16:10:12.563Z,13.10
2023-09-28T16:12:41.296Z,11.20
2023-09-28T16:15:09.738Z,8.70
2023-09-28T16:17:37.763Z,7.50
2023-09-28T16:20:07.876Z,10.60
2023-09-28T16:22:35.892Z,9.00
2023-09-28T16:25:04.189Z,12.20
2023-09-28T16:27:32.237Z,10.60
2023-09-28T16:30:00.229Z,12.50
2023-09-28T16:32:28.820Z,13.20
2023-09-28T16:34:56.912Z,12.60
2023-09-28T16:37:24.795Z,11.60
2023-09-28T16:39:52.585Z,14.50
2023-09-28T16:42:20.560Z,9.60
2023-09-28T16:44:48.458Z,15.20
2023-09-28T16:47:16.407Z,14.20
2023-09-28T16:49:44.372Z,11.20
2023-09-28T16:52:13.664Z,14.80
2023-09-28T16:54:41.579Z,16.80
2023-09-28T16:57:09.535Z,22.00
2023-09-28T16:59:37.566Z,15.20
2023-09-28T17:02:06.640Z,21.60
2023-09-28T17:04:34.659Z,13.80
2023-09-28T17:07:02.863Z,16.60
2023-09-28T17:09:30.696Z,14.80
2023-09-28T17:11:58.667Z,13.50
2023-09-28T17:14:26.611Z,12.50
2023-09-28T17:16:54.524Z,11.60
2023-09-28T17:19:22.576Z,12.90
2023-09-28T17:21:51.000Z,11.20
2023-09-28T17:24:19.820Z,15.10
2023-09-28T17:26:47.803Z,12.30
2023-09-28T17:29:15.806Z,15.50
2023-09-28T17:31:43.715Z,15.60
2023-09-28T17:34:11.947Z,14.60
2023-09-28T17:36:40.002Z,16.00
2023-09-28T17:39:08.003Z,15.10
2023-09-28T17:41:35.897Z,17.30
2023-09-28T17:44:03.810Z,12.90
2023-09-28T17:46:32.423Z,14.90
2023-09-28T17:49:00.343Z,24.70
2023-09-28T17:51:33.208Z,15.90
2023-09-28T17:54:05.888Z,21.50
2023-09-28T17:56:34.638Z,18.20
2023-09-28T17:59:02.593Z,21.40
2023-09-28T18:01:30.537Z,16.50
2023-09-28T18:03:58.868Z,18.20
2023-09-28T18:06:26.870Z,23.80
2023-09-28T18:08:55.074Z,18.00
2023-09-28T18:11:23.693Z,17.90
2023-09-28T18:13:51.954Z,20.10
2023-09-28T18:16:20.220Z,21.90
2023-09-28T18:18:48.281Z,18.20
2023-09-28T18:21:16.220Z,21.00
2023-09-28T18:23:44.708Z,25.80
2023-09-28T18:26:12.874Z,21.10
2023-09-28T18:28:42.676Z,21.80
2023-09-28T18:31:10.639Z,21.80
2023-09-28T18:33:39.254Z,21.40
2023-09-28T18:36:07.720Z,22.50
2023-09-28T18:38:35.709Z,28.50
2023-09-28T18:41:03.838Z,20.20
2023-09-28T18:43:33.035Z,20.00
2023-09-28T18:46:00.943Z,22.30
2023-09-28T18:48:28.892Z,29.10
2023-09-28T18:50:56.936Z,24.00
2023-09-28T18:53:26.918Z,21.80
2023-09-28T18:55:55.155Z,24.70
2023-09-28T18:58:23.003Z,24.70
2023-09-28T19:00:51.013Z,25.00
2023-09-28T19:03:19.057Z,25.20
2023-09-28T19:05:47.456Z,27.90
2023-09-28T19:08:15.494Z,37.90
2023-09-28T19:10:43.534Z,46.50
2023-09-28T19:13:11.889Z,24.60
2023-09-28T19:15:39.743Z,29.10
2023-09-28T19:18:07.732Z,22.80
2023-09-28T19:20:35.813Z,25.00
2023-09-28T19:23:03.975Z,23.10
2023-09-28T19:25:31.801Z,23.30
2023-09-28T19:27:59.740Z,39.30
2023-09-28T19:30:28.157Z,29.00
2023-09-28T19:32:57.512Z,24.60
2023-09-28T19:35:25.612Z,23.50
2023-09-28T19:37:53.548Z,23.40
2023-09-28T19:40:21.396Z,22.70
2023-09-28T19:42:49.375Z,23.40
2023-09-28T19:45:17.663Z,22.50
2023-09-28T19:47:46.185Z,26.50
2023-09-28T19:50:14.273Z,28.20
2023-09-28T19:52:42.201Z,23.30
2023-09-28T19:55:10.414Z,26.30
2023-09-28T19:57:38.379Z,25.40
2023-09-28T20:00:08.880Z,40.80
2023-09-28T20:02:37.412Z,42.00
2023-09-28T20:05:07.036Z,26.10
2023-09-28T20:07:34.973Z,33.50
2023-09-28T20:10:02.928Z,24.10
2023-09-28T20:12:30.802Z,26.90
2023-09-28T20:14:58.954Z,32.40
2023-09-28T20:17:26.884Z,29.60
2023-09-28T20:19:55.052Z,33.60
2023-09-28T20:22:25.035Z,33.20
2023-09-28T20:24:53.018Z,34.50
2023-09-28T20:27:20.916Z,28.50
2023-09-28T20:29:48.912Z,33.10
2023-09-28T20:32:17.818Z,29.70
2023-09-28T20:34:45.790Z,32.10
2023-09-28T20:37:13.752Z,41.00
2023-09-28T20:39:44.487Z,65.20
2023-09-28T20:42:12.699Z,69.70
2023-09-28T20:44:40.716Z,90.70
2023-09-28T20:47:09.669Z,58.80
2023-09-28T20:49:37.746Z,25.30
2023-09-28T20:52:05.729Z,29.40
2023-09-28T20:54:34.212Z,35.10
2023-09-28T20:57:02.140Z,43.00
2023-09-28T20:59:30.140Z,47.60
2023-09-28T21:01:58.055Z,51.40
2023-09-28T21:04:26.059Z,47.50
2023-09-28T21:06:54.309Z,39.60
2023-09-28T21:09:22.444Z,37.60
2023-09-28T21:11:55.175Z,44.00
2023-09-28T21:14:24.323Z,35.30
2023-09-28T21:16:52.339Z,38.00
2023-09-28T21:19:20.295Z,40.40
2023-09-28T21:21:48.392Z,48.00
2023-09-28T21:24:16.892Z,47.60
2023-09-28T21:26:45.510Z,35.90
2023-09-28T21:29:13.821Z,33.50
2023-09-28T21:31:41.782Z,30.70
2023-09-28T21:34:10.078Z,33.80
2023-09-28T21:36:38.908Z,30.40
2023-09-28T21:39:07.015Z,23.50
2023-09-28T21:41:35.181Z,27.20
2023-09-28T21:44:03.255Z,25.50
2023-09-28T21:46:31.247Z,23.70
2023-09-28T21:48:59.313Z,23.00
2023-09-28T21:51:27.248Z,20.60
2023-09-28T21:53:56.615Z,25.70
2023-09-28T21:58:54.823Z,22.20
2023-09-28T22:01:23.309Z,17.60
2023-09-28T22:03:52.472Z,23.80
2023-09-28T22:06:20.442Z,22.30
2023-09-28T22:08:48.289Z,20.40
2023-09-28T22:11:16.490Z,22.20
2023-09-28T22:13:44.457Z,22.90
2023-09-28T22:16:13.738Z,27.40
2023-09-28T22:18:41.655Z,31.40
2023-09-28T22:21:11.125Z,25.10
2023-09-28T22:23:39.207Z,27.90
2023-09-28T22:26:07.716Z,25.70
2023-09-28T22:28:35.695Z,27.60
2023-09-28T22:31:04.919Z,25.70
2023-09-28T22:33:35.149Z,30.10
2023-09-28T22:36:03.869Z,25.90
2023-09-28T22:38:31.814Z,24.60
2023-09-28T22:41:00.210Z,26.00
2023-09-28T22:43:28.365Z,29.10
2023-09-28T22:45:56.473Z,28.90
2023-09-28T22:48:24.717Z,23.60
2023-09-28T22:50:53.041Z,26.50
2023-09-28T22:53:22.100Z,19.30
2023-09-28T22:55:50.072Z,26.20
2023-09-28T22:58:17.922Z,26.10
2023-09-28T23:00:45.822Z,25.90
2023-09-28T23:03:14.948Z,26.40
2023-09-28T23:05:44.343Z,27.70
2023-09-28T23:08:12.887Z,26.60
2023-09-28T23:10:40.937Z,28.20
2023-09-28T23:13:08.885Z,23.30
2023-09-28T23:15:36.834Z,25.70
2023-09-28T23:18:05.949Z,27.60
2023-09-28T23:20:34.179Z,26.30
2023-09-28T23:23:02.280Z,30.30
2023-09-28T23:25:30.193Z,26.60
2023-09-28T23:27:58.302Z,30.50
2023-09-28T23:30:29.261Z,23.70
2023-09-28T23:32:57.389Z,26.90
2023-09-28T23:35:25.658Z,21.40
2023-09-28T23:37:56.013Z,23.30
2023-09-28T23:40:24.750Z,23.30
2023-09-28T23:42:54.222Z,23.70
2023-09-28T23:45:24.488Z,23.30
2023-09-28T23:47:53.610Z,26.80
2023-09-28T23:50:24.185Z,28.10
2023-09-28T23:52:52.152Z,25.00
2023-09-28T23:55:20.424Z,21.10
2023-09-28T23:57:48.280Z,23.40
